sensor_id;sensor_type;location;lat;lon;timestamp;P1;durP1;ratioP1;P2;durP2;ratioP2
12762;SDS011;6445;52.490;13.378;2023-05-07T00:00:41;18.00;;;13.60;;
12762;SDS011;6445;52.490;13.378;2023-05-07T00:03:07;16.33;;;14.52;;
12762;SDS011;6445;52.490;13.378;2023-05-07T00:05:32;18.35;;;14.13;;
12762;SDS011;6445;52.490;13.378;2023-05-07T00:07:57;18.48;;;13.50;;
12762;SDS011;6445;52.490;13.378;2023-05-07T00:10:23;17.80;;;12.98;;
12762;SDS011;6445;52.490;13.378;2023-05-07T00:12:48;16.67;;;13.93;;
12762;SDS011;6445;52.490;13.378;2023-05-07T00:15:13;19.33;;;13.48;;
12762;SDS011;6445;52.490;13.378;2023-05-07T00:17:38;16.42;;;13.60;;
12762;SDS011;6445;52.490;13.378;2023-05-07T00:20:04;15.95;;;13.10;;
12762;SDS011;6445;52.490;13.378;2023-05-07T00:22:30;15.63;;;13.43;;
12762;SDS011;6445;52.490;13.378;2023-05-07T00:24:57;14.70;;;12.90;;
12762;SDS011;6445;52.490;13.378;2023-05-07T00:27:22;16.58;;;13.40;;
12762;SDS011;6445;52.490;13.378;2023-05-07T00:29:48;16.73;;;13.13;;
12762;SDS011;6445;52.490;13.378;2023-05-07T00:32:13;17.38;;;12.73;;
12762;SDS011;6445;52.490;13.378;2023-05-07T00:34:38;15.05;;;12.55;;
12762;SDS011;6445;52.490;13.378;2023-05-07T00:37:04;15.05;;;11.75;;
12762;SDS011;6445;52.490;13.378;2023-05-07T00:39:29;14.60;;;11.48;;
12762;SDS011;6445;52.490;13.378;2023-05-07T00:41:55;12.57;;;11.27;;
12762;SDS011;6445;52.490;13.378;2023-05-07T00:44:20;14.18;;;11.20;;
12762;SDS011;6445;52.490;13.378;2023-05-07T00:46:45;13.10;;;11.70;;
12762;SDS011;6445;52.490;13.378;2023-05-07T00:49:13;13.10;;;11.60;;
12762;SDS011;6445;52.490;13.378;2023-05-07T00:51:39;12.35;;;11.05;;
12762;SDS011;6445;52.490;13.378;2023-05-07T00:54:04;12.70;;;11.27;;
12762;SDS011;6445;52.490;13.378;2023-05-07T00:56:30;13.93;;;11.73;;
12762;SDS011;6445;52.490;13.378;2023-05-07T00:58:56;15.10;;;12.30;;
12762;SDS011;6445;52.490;13.378;2023-05-07T01:01:21;14.38;;;11.82;;
12762;SDS011;6445;52.490;13.378;2023-05-07T01:03:47;16.42;;;12.77;;
12762;SDS011;6445;52.490;13.378;2023-05-07T01:06:13;14.15;;;12.55;;
12762;SDS011;6445;52.490;13.378;2023-05-07T01:08:41;17.20;;;12.70;;
12762;SDS011;6445;52.490;13.378;2023-05-07T01:11:07;15.88;;;12.82;;
12762;SDS011;6445;52.490;13.378;2023-05-07T01:13:34;14.57;;;12.95;;
12762;SDS011;6445;52.490;13.378;2023-05-07T01:16:01;16.75;;;13.52;;
12762;SDS011;6445;52.490;13.378;2023-05-07T01:18:27;14.15;;;12.27;;
12762;SDS011;6445;52.490;13.378;2023-05-07T01:20:55;15.23;;;11.55;;
12762;SDS011;6445;52.490;13.378;2023-05-07T01:23:23;13.93;;;11.40;;
12762;SDS011;6445;52.490;13.378;2023-05-07T01:25:53;13.73;;;12.15;;
12762;SDS011;6445;52.490;13.378;2023-05-07T01:28:19;16.95;;;12.70;;
12762;SDS011;6445;52.490;13.378;2023-05-07T01:30:46;15.82;;;12.85;;
12762;SDS011;6445;52.490;13.378;2023-05-07T01:33:15;14.35;;;11.77;;
12762;SDS011;6445;52.490;13.378;2023-05-07T01:35:45;13.35;;;11.95;;
12762;SDS011;6445;52.490;13.378;2023-05-07T01:38:13;13.95;;;11.93;;
12762;SDS011;6445;52.490;13.378;2023-05-07T01:40:39;14.63;;;11.75;;
12762;SDS011;6445;52.490;13.378;2023-05-07T01:43:05;13.23;;;11.82;;
12762;SDS011;6445;52.490;13.378;2023-05-07T01:45:31;13.85;;;11.93;;
12762;SDS011;6445;52.490;13.378;2023-05-07T01:47:58;15.40;;;11.82;;
12762;SDS011;6445;52.490;13.378;2023-05-07T01:50:23;13.18;;;11.23;;
12762;SDS011;6445;52.490;13.378;2023-05-07T01:52:50;12.73;;;11.43;;
12762;SDS011;6445;52.490;13.378;2023-05-07T01:55:15;15.05;;;12.10;;
12762;SDS011;6445;52.490;13.378;2023-05-07T01:57:41;15.95;;;11.82;;
12762;SDS011;6445;52.490;13.378;2023-05-07T02:00:06;13.43;;;11.27;;
12762;SDS011;6445;52.490;13.378;2023-05-07T02:02:33;13.77;;;11.95;;
12762;SDS011;6445;52.490;13.378;2023-05-07T02:04:59;12.85;;;10.80;;
12762;SDS011;6445;52.490;13.378;2023-05-07T02:07:25;12.55;;;10.65;;
12762;SDS011;6445;52.490;13.378;2023-05-07T02:09:51;14.40;;;10.85;;
12762;SDS011;6445;52.490;13.378;2023-05-07T02:12:16;13.05;;;11.55;;
12762;SDS011;6445;52.490;13.378;2023-05-07T02:14:41;16.80;;;11.05;;
12762;SDS011;6445;52.490;13.378;2023-05-07T02:17:07;13.57;;;11.02;;
12762;SDS011;6445;52.490;13.378;2023-05-07T02:19:32;18.52;;;11.20;;
12762;SDS011;6445;52.490;13.378;2023-05-07T02:21:57;13.55;;;11.80;;
12762;SDS011;6445;52.490;13.378;2023-05-07T02:24:23;13.18;;;10.82;;
12762;SDS011;6445;52.490;13.378;2023-05-07T02:26:48;15.55;;;11.35;;
12762;SDS011;6445;52.490;13.378;2023-05-07T02:29:13;15.98;;;11.50;;
12762;SDS011;6445;52.490;13.378;2023-05-07T02:31:38;16.73;;;12.35;;
12762;SDS011;6445;52.490;13.378;2023-05-07T02:34:04;20.02;;;11.65;;
12762;SDS011;6445;52.490;13.378;2023-05-07T02:36:29;13.82;;;11.40;;
12762;SDS011;6445;52.490;13.378;2023-05-07T02:38:54;15.02;;;12.05;;
12762;SDS011;6445;52.490;13.378;2023-05-07T02:41:20;14.65;;;11.60;;
12762;SDS011;6445;52.490;13.378;2023-05-07T02:43:45;13.85;;;11.95;;
12762;SDS011;6445;52.490;13.378;2023-05-07T02:46:11;14.10;;;11.90;;
12762;SDS011;6445;52.490;13.378;2023-05-07T02:48:36;15.63;;;12.18;;
12762;SDS011;6445;52.490;13.378;2023-05-07T02:51:01;15.60;;;11.07;;
12762;SDS011;6445;52.490;13.378;2023-05-07T02:53:27;13.52;;;10.80;;
12762;SDS011;6445;52.490;13.378;2023-05-07T02:55:53;13.02;;;10.52;;
12762;SDS011;6445;52.490;13.378;2023-05-07T02:58:18;11.60;;;9.98;;
12762;SDS011;6445;52.490;13.378;2023-05-07T03:00:44;15.48;;;11.52;;
12762;SDS011;6445;52.490;13.378;2023-05-07T03:03:09;12.00;;;10.60;;
12762;SDS011;6445;52.490;13.378;2023-05-07T03:05:35;12.13;;;10.82;;
12762;SDS011;6445;52.490;13.378;2023-05-07T03:08:01;15.45;;;12.25;;
12762;SDS011;6445;52.490;13.378;2023-05-07T03:10:26;13.82;;;11.45;;
12762;SDS011;6445;52.490;13.378;2023-05-07T03:12:51;14.52;;;11.00;;
12762;SDS011;6445;52.490;13.378;2023-05-07T03:15:16;14.27;;;10.40;;
12762;SDS011;6445;52.490;13.378;2023-05-07T03:17:42;12.82;;;10.00;;
12762;SDS011;6445;52.490;13.378;2023-05-07T03:20:07;12.27;;;10.25;;
12762;SDS011;6445;52.490;13.378;2023-05-07T03:22:34;15.63;;;11.30;;
12762;SDS011;6445;52.490;13.378;2023-05-07T03:24:59;11.32;;;10.10;;
12762;SDS011;6445;52.490;13.378;2023-05-07T03:27:24;11.25;;;10.15;;
12762;SDS011;6445;52.490;13.378;2023-05-07T03:29:50;11.48;;;10.20;;
12762;SDS011;6445;52.490;13.378;2023-05-07T03:32:15;13.65;;;10.05;;
12762;SDS011;6445;52.490;13.378;2023-05-07T03:34:40;13.18;;;9.85;;
12762;SDS011;6445;52.490;13.378;2023-05-07T03:37:06;11.30;;;9.38;;
12762;SDS011;6445;52.490;13.378;2023-05-07T03:39:31;12.50;;;10.07;;
12762;SDS011;6445;52.490;13.378;2023-05-07T03:41:57;13.43;;;10.43;;
12762;SDS011;6445;52.490;13.378;2023-05-07T03:44:22;14.52;;;10.55;;
12762;SDS011;6445;52.490;13.378;2023-05-07T03:46:48;14.35;;;10.68;;
12762;SDS011;6445;52.490;13.378;2023-05-07T03:49:13;14.25;;;11.30;;
12762;SDS011;6445;52.490;13.378;2023-05-07T03:51:38;13.40;;;11.20;;
12762;SDS011;6445;52.490;13.378;2023-05-07T03:54:03;18.05;;;12.65;;
12762;SDS011;6445;52.490;13.378;2023-05-07T03:56:29;13.43;;;11.75;;
12762;SDS011;6445;52.490;13.378;2023-05-07T03:58:56;14.45;;;11.50;;
12762;SDS011;6445;52.490;13.378;2023-05-07T04:01:21;13.10;;;11.43;;
12762;SDS011;6445;52.490;13.378;2023-05-07T04:03:46;15.07;;;11.00;;
12762;SDS011;6445;52.490;13.378;2023-05-07T04:06:11;15.02;;;11.02;;
12762;SDS011;6445;52.490;13.378;2023-05-07T04:08:37;14.38;;;10.77;;
12762;SDS011;6445;52.490;13.378;2023-05-07T04:11:02;13.77;;;11.02;;
12762;SDS011;6445;52.490;13.378;2023-05-07T04:13:27;12.90;;;11.35;;
12762;SDS011;6445;52.490;13.378;2023-05-07T04:15:54;14.77;;;11.27;;
12762;SDS011;6445;52.490;13.378;2023-05-07T04:18:20;13.57;;;10.80;;
12762;SDS011;6445;52.490;13.378;2023-05-07T04:20:46;12.07;;;10.18;;
12762;SDS011;6445;52.490;13.378;2023-05-07T04:23:12;13.30;;;10.38;;
12762;SDS011;6445;52.490;13.378;2023-05-07T04:25:37;11.88;;;10.55;;
12762;SDS011;6445;52.490;13.378;2023-05-07T04:28:03;14.38;;;10.48;;
12762;SDS011;6445;52.490;13.378;2023-05-07T04:30:28;12.65;;;9.73;;
12762;SDS011;6445;52.490;13.378;2023-05-07T04:32:53;12.82;;;9.65;;
12762;SDS011;6445;52.490;13.378;2023-05-07T04:35:19;11.63;;;10.18;;
12762;SDS011;6445;52.490;13.378;2023-05-07T04:37:44;11.93;;;9.85;;
12762;SDS011;6445;52.490;13.378;2023-05-07T04:40:09;11.57;;;9.63;;
12762;SDS011;6445;52.490;13.378;2023-05-07T04:42:35;10.95;;;9.73;;
12762;SDS011;6445;52.490;13.378;2023-05-07T04:45:00;11.65;;;8.82;;
12762;SDS011;6445;52.490;13.378;2023-05-07T04:47:26;13.23;;;9.50;;
12762;SDS011;6445;52.490;13.378;2023-05-07T04:49:52;12.10;;;9.05;;
12762;SDS011;6445;52.490;13.378;2023-05-07T04:52:17;35.60;;;25.15;;
12762;SDS011;6445;52.490;13.378;2023-05-07T04:54:42;10.30;;;8.63;;
12762;SDS011;6445;52.490;13.378;2023-05-07T04:57:07;9.55;;;8.35;;
12762;SDS011;6445;52.490;13.378;2023-05-07T04:59:33;11.32;;;9.35;;
12762;SDS011;6445;52.490;13.378;2023-05-07T05:01:58;9.85;;;8.40;;
12762;SDS011;6445;52.490;13.378;2023-05-07T05:04:23;10.23;;;8.02;;
12762;SDS011;6445;52.490;13.378;2023-05-07T05:06:49;10.80;;;8.35;;
12762;SDS011;6445;52.490;13.378;2023-05-07T05:09:14;11.50;;;8.25;;
12762;SDS011;6445;52.490;13.378;2023-05-07T05:11:40;9.18;;;8.18;;
12762;SDS011;6445;52.490;13.378;2023-05-07T05:14:06;11.30;;;7.90;;
12762;SDS011;6445;52.490;13.378;2023-05-07T05:16:31;9.10;;;7.47;;
12762;SDS011;6445;52.490;13.378;2023-05-07T05:18:56;8.38;;;7.47;;
12762;SDS011;6445;52.490;13.378;2023-05-07T05:21:21;8.57;;;7.45;;
12762;SDS011;6445;52.490;13.378;2023-05-07T05:23:47;9.18;;;7.50;;
12762;SDS011;6445;52.490;13.378;2023-05-07T05:26:12;9.73;;;7.60;;
12762;SDS011;6445;52.490;13.378;2023-05-07T05:28:37;10.18;;;7.53;;
12762;SDS011;6445;52.490;13.378;2023-05-07T05:31:02;9.05;;;7.13;;
12762;SDS011;6445;52.490;13.378;2023-05-07T05:33:28;78.65;;;56.33;;
12762;SDS011;6445;52.490;13.378;2023-05-07T05:35:53;9.55;;;7.45;;
12762;SDS011;6445;52.490;13.378;2023-05-07T05:38:19;8.18;;;6.63;;
12762;SDS011;6445;52.490;13.378;2023-05-07T05:40:45;9.82;;;7.78;;
12762;SDS011;6445;52.490;13.378;2023-05-07T05:43:11;9.50;;;7.40;;
12762;SDS011;6445;52.490;13.378;2023-05-07T05:45:36;8.73;;;7.28;;
12762;SDS011;6445;52.490;13.378;2023-05-07T05:48:01;13.07;;;7.63;;
12762;SDS011;6445;52.490;13.378;2023-05-07T05:50:26;7.65;;;6.78;;
12762;SDS011;6445;52.490;13.378;2023-05-07T05:52:52;11.85;;;7.18;;
12762;SDS011;6445;52.490;13.378;2023-05-07T05:55:17;10.73;;;7.40;;
12762;SDS011;6445;52.490;13.378;2023-05-07T05:57:42;9.95;;;7.45;;
12762;SDS011;6445;52.490;13.378;2023-05-07T06:00:08;11.30;;;7.47;;
12762;SDS011;6445;52.490;13.378;2023-05-07T06:02:34;22.58;;;15.23;;
12762;SDS011;6445;52.490;13.378;2023-05-07T06:04:59;10.48;;;7.05;;
12762;SDS011;6445;52.490;13.378;2023-05-07T06:07:24;10.60;;;7.15;;
12762;SDS011;6445;52.490;13.378;2023-05-07T06:09:50;10.27;;;7.07;;
12762;SDS011;6445;52.490;13.378;2023-05-07T06:12:15;8.70;;;7.13;;
12762;SDS011;6445;52.490;13.378;2023-05-07T06:14:42;9.30;;;6.72;;
12762;SDS011;6445;52.490;13.378;2023-05-07T06:17:08;8.35;;;6.22;;
12762;SDS011;6445;52.490;13.378;2023-05-07T06:19:33;7.95;;;6.80;;
12762;SDS011;6445;52.490;13.378;2023-05-07T06:21:58;8.02;;;6.65;;
12762;SDS011;6445;52.490;13.378;2023-05-07T06:24:26;13.40;;;10.25;;
12762;SDS011;6445;52.490;13.378;2023-05-07T06:26:51;8.93;;;6.93;;
12762;SDS011;6445;52.490;13.378;2023-05-07T06:29:16;10.77;;;7.43;;
12762;SDS011;6445;52.490;13.378;2023-05-07T06:31:41;8.18;;;6.43;;
12762;SDS011;6445;52.490;13.378;2023-05-07T06:34:07;15.38;;;7.53;;
12762;SDS011;6445;52.490;13.378;2023-05-07T06:36:32;7.93;;;6.80;;
12762;SDS011;6445;52.490;13.378;2023-05-07T06:38:57;10.85;;;7.10;;
12762;SDS011;6445;52.490;13.378;2023-05-07T06:41:23;8.75;;;7.07;;
12762;SDS011;6445;52.490;13.378;2023-05-07T06:43:48;9.73;;;6.60;;
12762;SDS011;6445;52.490;13.378;2023-05-07T06:46:13;8.38;;;7.00;;
12762;SDS011;6445;52.490;13.378;2023-05-07T06:48:38;7.68;;;6.72;;
12762;SDS011;6445;52.490;13.378;2023-05-07T06:51:04;8.43;;;7.15;;
12762;SDS011;6445;52.490;13.378;2023-05-07T06:53:29;18.02;;;14.38;;
12762;SDS011;6445;52.490;13.378;2023-05-07T06:55:55;9.02;;;6.15;;
12762;SDS011;6445;52.490;13.378;2023-05-07T06:58:21;9.00;;;6.05;;
12762;SDS011;6445;52.490;13.378;2023-05-07T07:00:46;7.28;;;5.80;;
12762;SDS011;6445;52.490;13.378;2023-05-07T07:03:11;7.05;;;6.10;;
12762;SDS011;6445;52.490;13.378;2023-05-07T07:05:36;7.65;;;6.20;;
12762;SDS011;6445;52.490;13.378;2023-05-07T07:08:02;8.82;;;6.40;;
12762;SDS011;6445;52.490;13.378;2023-05-07T07:10:27;6.95;;;6.25;;
12762;SDS011;6445;52.490;13.378;2023-05-07T07:12:52;8.40;;;6.35;;
12762;SDS011;6445;52.490;13.378;2023-05-07T07:15:17;7.13;;;5.82;;
12762;SDS011;6445;52.490;13.378;2023-05-07T07:17:45;8.90;;;6.80;;
12762;SDS011;6445;52.490;13.378;2023-05-07T07:20:10;7.43;;;6.07;;
12762;SDS011;6445;52.490;13.378;2023-05-07T07:22:36;7.28;;;4.97;;
12762;SDS011;6445;52.490;13.378;2023-05-07T07:25:01;31.88;;;6.22;;
12762;SDS011;6445;52.490;13.378;2023-05-07T07:27:26;4.43;;;4.03;;
12762;SDS011;6445;52.490;13.378;2023-05-07T07:29:52;6.38;;;4.45;;
12762;SDS011;6445;52.490;13.378;2023-05-07T07:32:17;6.10;;;4.30;;
12762;SDS011;6445;52.490;13.378;2023-05-07T07:34:42;4.50;;;4.03;;
12762;SDS011;6445;52.490;13.378;2023-05-07T07:37:07;4.72;;;3.78;;
12762;SDS011;6445;52.490;13.378;2023-05-07T07:39:33;4.43;;;3.60;;
12762;SDS011;6445;52.490;13.378;2023-05-07T07:41:58;4.53;;;3.80;;
12762;SDS011;6445;52.490;13.378;2023-05-07T07:44:23;7.88;;;6.20;;
12762;SDS011;6445;52.490;13.378;2023-05-07T07:46:48;10.73;;;4.38;;
12762;SDS011;6445;52.490;13.378;2023-05-07T07:49:14;5.35;;;3.28;;
12762;SDS011;6445;52.490;13.378;2023-05-07T07:51:40;4.15;;;3.75;;
12762;SDS011;6445;52.490;13.378;2023-05-07T07:54:05;4.43;;;4.03;;
12762;SDS011;6445;52.490;13.378;2023-05-07T07:56:32;4.53;;;3.90;;
12762;SDS011;6445;52.490;13.378;2023-05-07T07:59:01;5.25;;;4.75;;
12762;SDS011;6445;52.490;13.378;2023-05-07T08:01:26;4.60;;;3.92;;
12762;SDS011;6445;52.490;13.378;2023-05-07T08:03:52;4.20;;;3.80;;
12762;SDS011;6445;52.490;13.378;2023-05-07T08:06:17;4.45;;;3.83;;
12762;SDS011;6445;52.490;13.378;2023-05-07T08:08:43;5.30;;;3.83;;
12762;SDS011;6445;52.490;13.378;2023-05-07T08:11:08;4.63;;;3.83;;
12762;SDS011;6445;52.490;13.378;2023-05-07T08:13:34;3.97;;;3.58;;
12762;SDS011;6445;52.490;13.378;2023-05-07T08:15:59;4.13;;;3.72;;
12762;SDS011;6445;52.490;13.378;2023-05-07T08:18:25;6.60;;;3.58;;
12762;SDS011;6445;52.490;13.378;2023-05-07T08:20:50;3.70;;;3.28;;
12762;SDS011;6445;52.490;13.378;2023-05-07T08:23:16;3.63;;;3.33;;
12762;SDS011;6445;52.490;13.378;2023-05-07T08:25:41;5.72;;;3.38;;
12762;SDS011;6445;52.490;13.378;2023-05-07T08:28:07;3.95;;;3.45;;
12762;SDS011;6445;52.490;13.378;2023-05-07T08:30:32;4.70;;;3.20;;
12762;SDS011;6445;52.490;13.378;2023-05-07T08:32:58;3.65;;;3.35;;
12762;SDS011;6445;52.490;13.378;2023-05-07T08:35:23;5.22;;;3.58;;
12762;SDS011;6445;52.490;13.378;2023-05-07T08:37:48;3.55;;;3.20;;
12762;SDS011;6445;52.490;13.378;2023-05-07T08:40:14;4.55;;;3.08;;
12762;SDS011;6445;52.490;13.378;2023-05-07T08:42:39;4.33;;;2.97;;
12762;SDS011;6445;52.490;13.378;2023-05-07T08:45:05;3.22;;;2.92;;
12762;SDS011;6445;52.490;13.378;2023-05-07T08:47:34;3.53;;;2.85;;
12762;SDS011;6445;52.490;13.378;2023-05-07T08:50:05;4.20;;;3.10;;
12762;SDS011;6445;52.490;13.378;2023-05-07T08:52:31;4.55;;;3.40;;
12762;SDS011;6445;52.490;13.378;2023-05-07T08:54:56;6.38;;;3.33;;
12762;SDS011;6445;52.490;13.378;2023-05-07T08:57:22;12.10;;;10.15;;
12762;SDS011;6445;52.490;13.378;2023-05-07T08:59:49;5.57;;;3.80;;
12762;SDS011;6445;52.490;13.378;2023-05-07T09:02:14;3.38;;;2.78;;
12762;SDS011;6445;52.490;13.378;2023-05-07T09:04:40;3.33;;;2.97;;
12762;SDS011;6445;52.490;13.378;2023-05-07T09:07:05;5.28;;;3.00;;
12762;SDS011;6445;52.490;13.378;2023-05-07T09:09:32;5.70;;;3.10;;
12762;SDS011;6445;52.490;13.378;2023-05-07T09:11:58;4.53;;;2.75;;
12762;SDS011;6445;52.490;13.378;2023-05-07T09:14:24;3.28;;;2.72;;
12762;SDS011;6445;52.490;13.378;2023-05-07T09:16:51;2.97;;;2.60;;
12762;SDS011;6445;52.490;13.378;2023-05-07T09:19:21;3.47;;;2.67;;
12762;SDS011;6445;52.490;13.378;2023-05-07T09:21:48;6.55;;;2.97;;
12762;SDS011;6445;52.490;13.378;2023-05-07T09:24:14;3.95;;;2.90;;
12762;SDS011;6445;52.490;13.378;2023-05-07T09:26:40;3.75;;;2.90;;
12762;SDS011;6445;52.490;13.378;2023-05-07T09:29:06;4.03;;;2.90;;
12762;SDS011;6445;52.490;13.378;2023-05-07T09:31:32;5.05;;;2.88;;
12762;SDS011;6445;52.490;13.378;2023-05-07T09:33:57;3.33;;;2.95;;
12762;SDS011;6445;52.490;13.378;2023-05-07T09:36:22;4.00;;;3.30;;
12762;SDS011;6445;52.490;13.378;2023-05-07T09:38:48;4.95;;;3.00;;
12762;SDS011;6445;52.490;13.378;2023-05-07T09:41:14;4.07;;;3.10;;
12762;SDS011;6445;52.490;13.378;2023-05-07T09:43:40;5.05;;;3.05;;
12762;SDS011;6445;52.490;13.378;2023-05-07T09:46:06;3.85;;;2.95;;
12762;SDS011;6445;52.490;13.378;2023-05-07T09:48:36;2.85;;;2.65;;
12762;SDS011;6445;52.490;13.378;2023-05-07T09:51:06;7.07;;;3.28;;
12762;SDS011;6445;52.490;13.378;2023-05-07T09:53:39;2.83;;;2.55;;
12762;SDS011;6445;52.490;13.378;2023-05-07T09:56:06;3.65;;;2.90;;
12762;SDS011;6445;52.490;13.378;2023-05-07T09:58:32;4.93;;;3.10;;
12762;SDS011;6445;52.490;13.378;2023-05-07T10:01:01;5.05;;;3.03;;
12762;SDS011;6445;52.490;13.378;2023-05-07T10:03:27;4.88;;;3.08;;
12762;SDS011;6445;52.490;13.378;2023-05-07T10:05:56;4.93;;;2.80;;
12762;SDS011;6445;52.490;13.378;2023-05-07T10:08:23;12.77;;;8.35;;
12762;SDS011;6445;52.490;13.378;2023-05-07T10:10:49;5.07;;;3.25;;
12762;SDS011;6445;52.490;13.378;2023-05-07T10:13:14;3.42;;;2.40;;
12762;SDS011;6445;52.490;13.378;2023-05-07T10:15:40;5.03;;;2.45;;
12762;SDS011;6445;52.490;13.378;2023-05-07T10:18:06;2.65;;;2.25;;
12762;SDS011;6445;52.490;13.378;2023-05-07T10:20:33;3.63;;;1.85;;
12762;SDS011;6445;52.490;13.378;2023-05-07T10:22:59;2.65;;;2.20;;
12762;SDS011;6445;52.490;13.378;2023-05-07T10:25:30;8.52;;;7.22;;
12762;SDS011;6445;52.490;13.378;2023-05-07T10:28:01;3.00;;;2.50;;
12762;SDS011;6445;52.490;13.378;2023-05-07T10:30:52;2.45;;;2.17;;
12762;SDS011;6445;52.490;13.378;2023-05-07T10:33:48;3.45;;;2.28;;
12762;SDS011;6445;52.490;13.378;2023-05-07T10:36:16;2.90;;;2.22;;
12762;SDS011;6445;52.490;13.378;2023-05-07T10:38:42;2.65;;;2.17;;
12762;SDS011;6445;52.490;13.378;2023-05-07T10:41:07;2.88;;;2.15;;
12762;SDS011;6445;52.490;13.378;2023-05-07T10:43:40;3.33;;;2.17;;
12762;SDS011;6445;52.490;13.378;2023-05-07T10:46:19;3.85;;;2.00;;
12762;SDS011;6445;52.490;13.378;2023-05-07T10:51:31;2.95;;;1.80;;
12762;SDS011;6445;52.490;13.378;2023-05-07T10:56:40;3.40;;;1.80;;
12762;SDS011;6445;52.490;13.378;2023-05-07T11:01:55;5.70;;;1.90;;
12762;SDS011;6445;52.490;13.378;2023-05-07T11:04:24;4.35;;;1.95;;
12762;SDS011;6445;52.490;13.378;2023-05-07T11:15:07;3.53;;;2.55;;
12762;SDS011;6445;52.490;13.378;2023-05-07T11:17:55;4.63;;;1.90;;
12762;SDS011;6445;52.490;13.378;2023-05-07T11:26:00;2.45;;;1.90;;
12762;SDS011;6445;52.490;13.378;2023-05-07T11:28:27;2.50;;;1.77;;
12762;SDS011;6445;52.490;13.378;2023-05-07T11:30:53;1.73;;;1.60;;
12762;SDS011;6445;52.490;13.378;2023-05-07T11:33:19;1.95;;;1.60;;
12762;SDS011;6445;52.490;13.378;2023-05-07T11:35:44;2.10;;;1.80;;
12762;SDS011;6445;52.490;13.378;2023-05-07T11:38:10;2.22;;;1.70;;
12762;SDS011;6445;52.490;13.378;2023-05-07T11:40:48;1.90;;;1.70;;
12762;SDS011;6445;52.490;13.378;2023-05-07T11:43:16;2.75;;;1.83;;
12762;SDS011;6445;52.490;13.378;2023-05-07T11:45:42;3.10;;;1.98;;
12762;SDS011;6445;52.490;13.378;2023-05-07T11:48:07;2.75;;;1.77;;
12762;SDS011;6445;52.490;13.378;2023-05-07T11:50:33;2.28;;;2.03;;
12762;SDS011;6445;52.490;13.378;2023-05-07T11:52:58;3.90;;;1.98;;
12762;SDS011;6445;52.490;13.378;2023-05-07T11:55:24;2.30;;;1.85;;
12762;SDS011;6445;52.490;13.378;2023-05-07T11:57:49;2.88;;;1.92;;
12762;SDS011;6445;52.490;13.378;2023-05-07T12:00:15;3.45;;;2.40;;
12762;SDS011;6445;52.490;13.378;2023-05-07T12:02:41;3.47;;;2.10;;
12762;SDS011;6445;52.490;13.378;2023-05-07T12:05:07;2.42;;;2.00;;
12762;SDS011;6445;52.490;13.378;2023-05-07T12:07:36;1.98;;;1.58;;
12762;SDS011;6445;52.490;13.378;2023-05-07T12:10:07;2.47;;;1.70;;
12762;SDS011;6445;52.490;13.378;2023-05-07T12:12:39;3.83;;;2.30;;
12762;SDS011;6445;52.490;13.378;2023-05-07T12:15:06;3.40;;;2.17;;
12762;SDS011;6445;52.490;13.378;2023-05-07T12:17:32;1.77;;;1.67;;
12762;SDS011;6445;52.490;13.378;2023-05-07T12:19:58;2.40;;;1.90;;
12762;SDS011;6445;52.490;13.378;2023-05-07T12:22:23;1.73;;;1.63;;
12762;SDS011;6445;52.490;13.378;2023-05-07T12:24:49;1.95;;;1.75;;
12762;SDS011;6445;52.490;13.378;2023-05-07T12:27:21;2.55;;;1.85;;
12762;SDS011;6445;52.490;13.378;2023-05-07T12:29:46;5.93;;;1.90;;
12762;SDS011;6445;52.490;13.378;2023-05-07T12:32:13;3.40;;;1.80;;
12762;SDS011;6445;52.490;13.378;2023-05-07T12:34:42;3.15;;;1.95;;
12762;SDS011;6445;52.490;13.378;2023-05-07T12:37:08;2.00;;;1.70;;
12762;SDS011;6445;52.490;13.378;2023-05-07T12:39:33;2.58;;;1.60;;
12762;SDS011;6445;52.490;13.378;2023-05-07T12:41:59;1.60;;;1.50;;
12762;SDS011;6445;52.490;13.378;2023-05-07T12:44:25;1.95;;;1.52;;
12762;SDS011;6445;52.490;13.378;2023-05-07T12:46:53;3.28;;;1.40;;
12762;SDS011;6445;52.490;13.378;2023-05-07T12:49:19;2.75;;;1.90;;
12762;SDS011;6445;52.490;13.378;2023-05-07T12:51:46;2.03;;;1.70;;
12762;SDS011;6445;52.490;13.378;2023-05-07T12:54:12;3.83;;;1.73;;
12762;SDS011;6445;52.490;13.378;2023-05-07T12:56:37;3.65;;;1.80;;
12762;SDS011;6445;52.490;13.378;2023-05-07T12:59:02;2.72;;;1.75;;
12762;SDS011;6445;52.490;13.378;2023-05-07T13:01:29;2.33;;;1.58;;
12762;SDS011;6445;52.490;13.378;2023-05-07T13:04:01;3.28;;;1.83;;
12762;SDS011;6445;52.490;13.378;2023-05-07T13:06:29;3.47;;;1.80;;
12762;SDS011;6445;52.490;13.378;2023-05-07T13:08:55;1.73;;;1.48;;
12762;SDS011;6445;52.490;13.378;2023-05-07T13:11:21;3.13;;;1.80;;
12762;SDS011;6445;52.490;13.378;2023-05-07T13:13:46;2.95;;;1.73;;
12762;SDS011;6445;52.490;13.378;2023-05-07T13:16:11;2.38;;;1.65;;
12762;SDS011;6445;52.490;13.378;2023-05-07T13:18:38;2.17;;;1.65;;
12762;SDS011;6445;52.490;13.378;2023-05-07T13:21:04;2.50;;;1.50;;
12762;SDS011;6445;52.490;13.378;2023-05-07T13:23:29;1.80;;;1.60;;
12762;SDS011;6445;52.490;13.378;2023-05-07T13:25:55;2.30;;;1.90;;
12762;SDS011;6445;52.490;13.378;2023-05-07T13:28:21;2.25;;;1.70;;
12762;SDS011;6445;52.490;13.378;2023-05-07T13:30:47;6.72;;;5.22;;
12762;SDS011;6445;52.490;13.378;2023-05-07T13:33:12;3.40;;;1.67;;
12762;SDS011;6445;52.490;13.378;2023-05-07T13:35:38;1.90;;;1.45;;
12762;SDS011;6445;52.490;13.378;2023-05-07T13:38:03;3.35;;;1.80;;
12762;SDS011;6445;52.490;13.378;2023-05-07T13:40:28;3.45;;;1.63;;
12762;SDS011;6445;52.490;13.378;2023-05-07T13:42:56;3.80;;;1.60;;
12762;SDS011;6445;52.490;13.378;2023-05-07T13:45:23;3.63;;;2.05;;
12762;SDS011;6445;52.490;13.378;2023-05-07T13:47:50;3.03;;;1.80;;
12762;SDS011;6445;52.490;13.378;2023-05-07T13:50:16;3.70;;;1.60;;
12762;SDS011;6445;52.490;13.378;2023-05-07T13:52:42;2.50;;;1.63;;
12762;SDS011;6445;52.490;13.378;2023-05-07T13:55:08;5.03;;;2.20;;
12762;SDS011;6445;52.490;13.378;2023-05-07T13:57:34;2.75;;;2.15;;
12762;SDS011;6445;52.490;13.378;2023-05-07T14:00:00;2.38;;;1.60;;
12762;SDS011;6445;52.490;13.378;2023-05-07T14:02:25;4.53;;;1.83;;
12762;SDS011;6445;52.490;13.378;2023-05-07T14:04:50;2.05;;;1.65;;
12762;SDS011;6445;52.490;13.378;2023-05-07T14:07:15;2.53;;;1.90;;
12762;SDS011;6445;52.490;13.378;2023-05-07T14:09:41;2.20;;;1.80;;
12762;SDS011;6445;52.490;13.378;2023-05-07T14:12:07;6.25;;;1.90;;
12762;SDS011;6445;52.490;13.378;2023-05-07T14:14:32;1.75;;;1.65;;
12762;SDS011;6445;52.490;13.378;2023-05-07T14:16:57;2.35;;;1.60;;
12762;SDS011;6445;52.490;13.378;2023-05-07T14:19:22;1.95;;;1.35;;
12762;SDS011;6445;52.490;13.378;2023-05-07T14:21:48;3.40;;;1.63;;
12762;SDS011;6445;52.490;13.378;2023-05-07T14:24:13;1.77;;;1.50;;
12762;SDS011;6445;52.490;13.378;2023-05-07T14:26:39;3.47;;;1.95;;
12762;SDS011;6445;52.490;13.378;2023-05-07T14:29:04;1.60;;;1.50;;
12762;SDS011;6445;52.490;13.378;2023-05-07T14:31:29;1.52;;;1.40;;
12762;SDS011;6445;52.490;13.378;2023-05-07T14:33:55;4.13;;;1.60;;
12762;SDS011;6445;52.490;13.378;2023-05-07T14:36:22;2.65;;;1.73;;
12762;SDS011;6445;52.490;13.378;2023-05-07T14:38:50;4.40;;;1.95;;
12762;SDS011;6445;52.490;13.378;2023-05-07T14:41:16;1.92;;;1.73;;
12762;SDS011;6445;52.490;13.378;2023-05-07T14:43:41;1.85;;;1.63;;
12762;SDS011;6445;52.490;13.378;2023-05-07T14:46:06;2.58;;;1.77;;
12762;SDS011;6445;52.490;13.378;2023-05-07T14:48:32;1.90;;;1.58;;
12762;SDS011;6445;52.490;13.378;2023-05-07T14:50:57;2.25;;;1.75;;
12762;SDS011;6445;52.490;13.378;2023-05-07T14:53:22;3.72;;;2.20;;